sensor_id;sensor_type;location;lat;lon;timestamp;temperature;humidity
26224;DHT22;14820;48.682;8.890;2022-09-06T00:01:43;16.40;99.90
26224;DHT22;14820;48.682;8.890;2022-09-06T00:04:09;16.40;99.90
26224;DHT22;14820;48.682;8.890;2022-09-06T00:06:35;16.30;99.90
26224;DHT22;14820;48.682;8.890;2022-09-06T00:09:01;16.20;99.90
26224;DHT22;14820;48.682;8.890;2022-09-06T00:11:27;16.20;99.90
26224;DHT22;14820;48.682;8.890;2022-09-06T00:13:53;16.20;99.90
26224;DHT22;14820;48.682;8.890;2022-09-06T00:16:21;16.10;99.90
26224;DHT22;14820;48.682;8.890;2022-09-06T00:18:48;16.00;99.90
26224;DHT22;14820;48.682;8.890;2022-09-06T00:21:22;16.00;99.90
26224;DHT22;14820;48.682;8.890;2022-09-06T00:23:48;16.00;99.90
26224;DHT22;14820;48.682;8.890;2022-09-06T00:26:15;15.90;99.90
26224;DHT22;14820;48.682;8.890;2022-09-06T00:28:41;15.90;99.90
26224;DHT22;14820;48.682;8.890;2022-09-06T00:31:11;15.90;99.90
26224;DHT22;14820;48.682;8.890;2022-09-06T00:33:37;15.90;99.90
26224;DHT22;14820;48.682;8.890;2022-09-06T00:36:03;15.90;99.90
26224;DHT22;14820;48.682;8.890;2022-09-06T00:38:29;15.90;99.90
26224;DHT22;14820;48.682;8.890;2022-09-06T00:40:55;15.90;99.90
26224;DHT22;14820;48.682;8.890;2022-09-06T00:43:21;15.90;99.90
26224;DHT22;14820;48.682;8.890;2022-09-06T00:45:47;15.90;99.90
26224;DHT22;14820;48.682;8.890;2022-09-06T00:48:14;15.90;99.90
26224;DHT22;14820;48.682;8.890;2022-09-06T00:50:42;15.90;99.90
26224;DHT22;14820;48.682;8.890;2022-09-06T00:53:07;16.00;99.90
26224;DHT22;14820;48.682;8.890;2022-09-06T00:55:33;16.10;99.90
26224;DHT22;14820;48.682;8.890;2022-09-06T00:57:59;16.00;99.90
26224;DHT22;14820;48.682;8.890;2022-09-06T01:00:25;16.00;99.90
26224;DHT22;14820;48.682;8.890;2022-09-06T01:02:50;15.90;99.90
26224;DHT22;14820;48.682;8.890;2022-09-06T01:05:17;15.80;99.90
26224;DHT22;14820;48.682;8.890;2022-09-06T01:08:07;15.80;99.90
26224;DHT22;14820;48.682;8.890;2022-09-06T01:11:01;15.70;99.90
26224;DHT22;14820;48.682;8.890;2022-09-06T01:13:53;15.70;99.90
26224;DHT22;14820;48.682;8.890;2022-09-06T01:16:35;15.60;99.90
26224;DHT22;14820;48.682;8.890;2022-09-06T01:24:49;15.60;99.90
26224;DHT22;14820;48.682;8.890;2022-09-06T01:32:30;15.50;99.90
26224;DHT22;14820;48.682;8.890;2022-09-06T01:38:16;15.60;99.90
26224;DHT22;14820;48.682;8.890;2022-09-06T01:40:42;15.60;99.90
26224;DHT22;14820;48.682;8.890;2022-09-06T01:43:10;15.60;99.90
26224;DHT22;14820;48.682;8.890;2022-09-06T01:51:28;15.60;99.90
26224;DHT22;14820;48.682;8.890;2022-09-06T02:04:29;15.60;99.90
26224;DHT22;14820;48.682;8.890;2022-09-06T02:07:15;15.60;99.90
26224;DHT22;14820;48.682;8.890;2022-09-06T02:09:43;15.60;99.90
26224;DHT22;14820;48.682;8.890;2022-09-06T02:12:12;15.80;99.90
26224;DHT22;14820;48.682;8.890;2022-09-06T02:15:06;16.10;99.90
26224;DHT22;14820;48.682;8.890;2022-09-06T02:17:37;16.40;99.90
26224;DHT22;14820;48.682;8.890;2022-09-06T02:20:08;16.60;99.90
26224;DHT22;14820;48.682;8.890;2022-09-06T02:22:42;16.60;99.90
26224;DHT22;14820;48.682;8.890;2022-09-06T02:25:10;16.70;99.90
26224;DHT22;14820;48.682;8.890;2022-09-06T02:27:38;16.70;99.90
26224;DHT22;14820;48.682;8.890;2022-09-06T02:30:05;16.70;99.90
26224;DHT22;14820;48.682;8.890;2022-09-06T02:32:36;16.70;99.90
26224;DHT22;14820;48.682;8.890;2022-09-06T02:35:10;16.70;99.90
26224;DHT22;14820;48.682;8.890;2022-09-06T02:37:37;16.80;99.90
26224;DHT22;14820;48.682;8.890;2022-09-06T02:40:03;16.80;99.90
26224;DHT22;14820;48.682;8.890;2022-09-06T02:42:29;16.80;99.90
26224;DHT22;14820;48.682;8.890;2022-09-06T02:44:55;16.80;99.90
26224;DHT22;14820;48.682;8.890;2022-09-06T02:47:20;16.80;99.90
26224;DHT22;14820;48.682;8.890;2022-09-06T02:49:46;16.90;99.90
26224;DHT22;14820;48.682;8.890;2022-09-06T02:52:12;16.90;99.90
26224;DHT22;14820;48.682;8.890;2022-09-06T02:54:37;16.90;99.90
26224;DHT22;14820;48.682;8.890;2022-09-06T02:57:03;16.90;99.90
26224;DHT22;14820;48.682;8.890;2022-09-06T02:59:29;16.90;99.90
26224;DHT22;14820;48.682;8.890;2022-09-06T03:01:54;17.00;99.90
26224;DHT22;14820;48.682;8.890;2022-09-06T03:04:20;17.00;99.90
26224;DHT22;14820;48.682;8.890;2022-09-06T03:06:46;16.90;99.90
26224;DHT22;14820;48.682;8.890;2022-09-06T03:09:11;16.90;99.90
26224;DHT22;14820;48.682;8.890;2022-09-06T03:11:37;16.90;99.90
26224;DHT22;14820;48.682;8.890;2022-09-06T03:14:03;16.90;99.90
26224;DHT22;14820;48.682;8.890;2022-09-06T03:16:29;16.90;99.90
26224;DHT22;14820;48.682;8.890;2022-09-06T03:18:55;16.90;99.90
26224;DHT22;14820;48.682;8.890;2022-09-06T03:21:20;17.00;99.90
26224;DHT22;14820;48.682;8.890;2022-09-06T03:23:46;17.00;99.90
26224;DHT22;14820;48.682;8.890;2022-09-06T03:26:12;17.00;99.90
26224;DHT22;14820;48.682;8.890;2022-09-06T03:28:38;17.00;99.90
26224;DHT22;14820;48.682;8.890;2022-09-06T03:31:04;17.00;99.90
26224;DHT22;14820;48.682;8.890;2022-09-06T03:33:29;16.90;99.90
26224;DHT22;14820;48.682;8.890;2022-09-06T03:35:58;16.90;99.90
26224;DHT22;14820;48.682;8.890;2022-09-06T03:38:25;16.80;99.90
26224;DHT22;14820;48.682;8.890;2022-09-06T03:40:52;16.80;99.90
26224;DHT22;14820;48.682;8.890;2022-09-06T03:43:19;16.70;99.90
26224;DHT22;14820;48.682;8.890;2022-09-06T03:45:47;16.70;99.90
26224;DHT22;14820;48.682;8.890;2022-09-06T03:48:13;16.70;99.90
26224;DHT22;14820;48.682;8.890;2022-09-06T03:50:51;16.70;99.90
26224;DHT22;14820;48.682;8.890;2022-09-06T03:53:18;16.70;99.90
26224;DHT22;14820;48.682;8.890;2022-09-06T03:55:47;16.60;99.90
26224;DHT22;14820;48.682;8.890;2022-09-06T03:58:14;16.60;99.90
26224;DHT22;14820;48.682;8.890;2022-09-06T04:00:40;16.60;99.90
26224;DHT22;14820;48.682;8.890;2022-09-06T04:03:06;16.50;99.90
26224;DHT22;14820;48.682;8.890;2022-09-06T04:05:31;16.50;99.90
26224;DHT22;14820;48.682;8.890;2022-09-06T04:07:57;16.50;99.90
26224;DHT22;14820;48.682;8.890;2022-09-06T04:10:23;16.50;99.90
26224;DHT22;14820;48.682;8.890;2022-09-06T04:12:48;16.50;99.90
26224;DHT22;14820;48.682;8.890;2022-09-06T04:15:14;16.40;99.90
26224;DHT22;14820;48.682;8.890;2022-09-06T04:17:44;16.40;99.90
26224;DHT22;14820;48.682;8.890;2022-09-06T04:20:13;16.40;99.90
26224;DHT22;14820;48.682;8.890;2022-09-06T04:22:39;16.40;99.90
26224;DHT22;14820;48.682;8.890;2022-09-06T04:25:05;16.40;99.90
26224;DHT22;14820;48.682;8.890;2022-09-06T04:27:31;16.40;99.90
26224;DHT22;14820;48.682;8.890;2022-09-06T04:29:57;16.40;99.90
26224;DHT22;14820;48.682;8.890;2022-09-06T04:32:23;16.40;99.90
26224;DHT22;14820;48.682;8.890;2022-09-06T04:34:49;16.50;99.90
26224;DHT22;14820;48.682;8.890;2022-09-06T04:37:14;16.50;99.90
26224;DHT22;14820;48.682;8.890;2022-09-06T04:39:45;16.40;99.90
26224;DHT22;14820;48.682;8.890;2022-09-06T04:42:10;16.40;99.90
26224;DHT22;14820;48.682;8.890;2022-09-06T04:44:36;16.40;99.90
26224;DHT22;14820;48.682;8.890;2022-09-06T04:47:04;16.40;99.90
26224;DHT22;14820;48.682;8.890;2022-09-06T04:49:31;16.40;99.90
26224;DHT22;14820;48.682;8.890;2022-09-06T04:51:56;16.40;99.90
26224;DHT22;14820;48.682;8.890;2022-09-06T04:54:22;16.30;99.90
26224;DHT22;14820;48.682;8.890;2022-09-06T04:56:48;16.30;99.90
26224;DHT22;14820;48.682;8.890;2022-09-06T04:59:13;16.30;99.90
26224;DHT22;14820;48.682;8.890;2022-09-06T05:01:39;16.20;99.90
26224;DHT22;14820;48.682;8.890;2022-09-06T05:04:04;16.20;99.90
26224;DHT22;14820;48.682;8.890;2022-09-06T05:06:30;16.20;99.90
26224;DHT22;14820;48.682;8.890;2022-09-06T05:08:56;16.20;99.90
26224;DHT22;14820;48.682;8.890;2022-09-06T05:11:21;16.30;99.90
26224;DHT22;14820;48.682;8.890;2022-09-06T05:13:47;16.30;99.90
26224;DHT22;14820;48.682;8.890;2022-09-06T05:16:14;16.30;99.90
26224;DHT22;14820;48.682;8.890;2022-09-06T05:18:40;16.40;99.90
26224;DHT22;14820;48.682;8.890;2022-09-06T05:21:06;16.40;99.90
26224;DHT22;14820;48.682;8.890;2022-09-06T05:23:32;16.50;99.90
26224;DHT22;14820;48.682;8.890;2022-09-06T05:25:57;16.40;99.90
26224;DHT22;14820;48.682;8.890;2022-09-06T05:28:23;16.40;99.90
26224;DHT22;14820;48.682;8.890;2022-09-06T05:30:49;16.30;99.90
26224;DHT22;14820;48.682;8.890;2022-09-06T05:33:19;16.30;99.90
26224;DHT22;14820;48.682;8.890;2022-09-06T05:35:45;16.40;99.90
26224;DHT22;14820;48.682;8.890;2022-09-06T05:38:11;16.40;99.90
26224;DHT22;14820;48.682;8.890;2022-09-06T05:40:37;16.50;99.90
26224;DHT22;14820;48.682;8.890;2022-09-06T05:43:02;16.50;99.90
26224;DHT22;14820;48.682;8.890;2022-09-06T05:45:28;16.50;99.90
26224;DHT22;14820;48.682;8.890;2022-09-06T05:47:54;16.60;99.90
26224;DHT22;14820;48.682;8.890;2022-09-06T05:50:19;16.60;99.90
26224;DHT22;14820;48.682;8.890;2022-09-06T05:52:45;16.60;99.90
26224;DHT22;14820;48.682;8.890;2022-09-06T05:55:11;16.60;99.90
26224;DHT22;14820;48.682;8.890;2022-09-06T05:57:37;16.60;99.90
26224;DHT22;14820;48.682;8.890;2022-09-06T06:00:04;16.70;99.90
26224;DHT22;14820;48.682;8.890;2022-09-06T06:02:31;16.70;99.90
26224;DHT22;14820;48.682;8.890;2022-09-06T06:04:57;16.70;99.90
26224;DHT22;14820;48.682;8.890;2022-09-06T06:07:22;16.80;99.90
26224;DHT22;14820;48.682;8.890;2022-09-06T06:09:49;16.80;99.90
26224;DHT22;14820;48.682;8.890;2022-09-06T06:12:14;16.80;99.90
26224;DHT22;14820;48.682;8.890;2022-09-06T06:14:40;16.80;99.90
26224;DHT22;14820;48.682;8.890;2022-09-06T06:17:06;16.80;99.90
26224;DHT22;14820;48.682;8.890;2022-09-06T06:19:31;16.80;99.90
26224;DHT22;14820;48.682;8.890;2022-09-06T06:21:57;16.80;99.90
26224;DHT22;14820;48.682;8.890;2022-09-06T06:24:23;16.80;99.90
26224;DHT22;14820;48.682;8.890;2022-09-06T06:26:49;16.80;99.90
26224;DHT22;14820;48.682;8.890;2022-09-06T06:29:14;16.80;99.90
26224;DHT22;14820;48.682;8.890;2022-09-06T06:31:40;16.80;99.90
26224;DHT22;14820;48.682;8.890;2022-09-06T06:34:06;16.80;99.90
26224;DHT22;14820;48.682;8.890;2022-09-06T06:36:34;16.90;99.90
26224;DHT22;14820;48.682;8.890;2022-09-06T06:39:01;17.00;99.90
26224;DHT22;14820;48.682;8.890;2022-09-06T06:41:29;17.10;99.90
26224;DHT22;14820;48.682;8.890;2022-09-06T06:43:59;17.20;99.90
26224;DHT22;14820;48.682;8.890;2022-09-06T06:46:35;17.30;99.90
26224;DHT22;14820;48.682;8.890;2022-09-06T06:49:04;17.40;99.90
26224;DHT22;14820;48.682;8.890;2022-09-06T06:51:34;17.50;99.90
26224;DHT22;14820;48.682;8.890;2022-09-06T06:54:04;17.50;99.90
26224;DHT22;14820;48.682;8.890;2022-09-06T06:56:36;17.60;99.90
26224;DHT22;14820;48.682;8.890;2022-09-06T06:59:04;17.70;99.90
26224;DHT22;14820;48.682;8.890;2022-09-06T07:01:33;17.80;99.90
26224;DHT22;14820;48.682;8.890;2022-09-06T07:03:59;17.90;99.90
26224;DHT22;14820;48.682;8.890;2022-09-06T07:06:26;18.10;99.90
26224;DHT22;14820;48.682;8.890;2022-09-06T07:09:02;18.10;99.90
26224;DHT22;14820;48.682;8.890;2022-09-06T07:11:28;18.30;99.90
26224;DHT22;14820;48.682;8.890;2022-09-06T07:13:57;18.40;99.90
26224;DHT22;14820;48.682;8.890;2022-09-06T07:16:23;18.40;99.90
26224;DHT22;14820;48.682;8.890;2022-09-06T07:18:51;18.50;99.90
26224;DHT22;14820;48.682;8.890;2022-09-06T07:21:21;18.50;99.90
26224;DHT22;14820;48.682;8.890;2022-09-06T07:23:51;18.50;99.90
26224;DHT22;14820;48.682;8.890;2022-09-06T07:26:20;18.60;99.90
26224;DHT22;14820;48.682;8.890;2022-09-06T07:28:47;18.60;99.90
26224;DHT22;14820;48.682;8.890;2022-09-06T07:31:13;18.60;99.90
26224;DHT22;14820;48.682;8.890;2022-09-06T07:33:39;18.70;99.90
26224;DHT22;14820;48.682;8.890;2022-09-06T07:36:07;18.80;99.90
26224;DHT22;14820;48.682;8.890;2022-09-06T07:38:34;18.80;99.90
26224;DHT22;14820;48.682;8.890;2022-09-06T07:41:02;18.90;99.90
26224;DHT22;14820;48.682;8.890;2022-09-06T07:43:29;19.00;99.90
26224;DHT22;14820;48.682;8.890;2022-09-06T07:46:08;19.10;99.90
26224;DHT22;14820;48.682;8.890;2022-09-06T07:48:37;19.30;99.90
26224;DHT22;14820;48.682;8.890;2022-09-06T07:51:07;19.40;99.90
26224;DHT22;14820;48.682;8.890;2022-09-06T07:53:38;19.50;99.90
26224;DHT22;14820;48.682;8.890;2022-09-06T07:56:05;19.50;99.90
26224;DHT22;14820;48.682;8.890;2022-09-06T07:58:33;19.60;99.90
26224;DHT22;14820;48.682;8.890;2022-09-06T08:01:27;19.70;99.90
26224;DHT22;14820;48.682;8.890;2022-09-06T08:03:55;19.80;99.90
26224;DHT22;14820;48.682;8.890;2022-09-06T08:06:22;19.90;99.90
26224;DHT22;14820;48.682;8.890;2022-09-06T08:08:48;19.90;99.90
26224;DHT22;14820;48.682;8.890;2022-09-06T08:11:14;19.90;99.90
26224;DHT22;14820;48.682;8.890;2022-09-06T08:13:39;20.00;99.90
26224;DHT22;14820;48.682;8.890;2022-09-06T08:16:08;20.10;99.90
26224;DHT22;14820;48.682;8.890;2022-09-06T08:18:35;20.30;99.90
26224;DHT22;14820;48.682;8.890;2022-09-06T08:21:11;20.40;99.90
26224;DHT22;14820;48.682;8.890;2022-09-06T08:23:38;20.50;99.90
26224;DHT22;14820;48.682;8.890;2022-09-06T08:26:07;20.50;99.90
26224;DHT22;14820;48.682;8.890;2022-09-06T08:28:33;20.60;99.90
26224;DHT22;14820;48.682;8.890;2022-09-06T08:33:32;21.00;99.90
26224;DHT22;14820;48.682;8.890;2022-09-06T08:35:57;21.00;99.90
26224;DHT22;14820;48.682;8.890;2022-09-06T08:38:24;21.10;99.90
26224;DHT22;14820;48.682;8.890;2022-09-06T08:40:51;21.20;99.90
26224;DHT22;14820;48.682;8.890;2022-09-06T08:43:19;21.30;99.90
26224;DHT22;14820;48.682;8.890;2022-09-06T08:45:51;21.40;99.90
26224;DHT22;14820;48.682;8.890;2022-09-06T08:48:20;21.50;99.90
26224;DHT22;14820;48.682;8.890;2022-09-06T08:51:02;21.60;99.90
26224;DHT22;14820;48.682;8.890;2022-09-06T08:53:31;21.70;99.90
26224;DHT22;14820;48.682;8.890;2022-09-06T08:56:16;21.80;99.90
26224;DHT22;14820;48.682;8.890;2022-09-06T08:59:04;21.90;99.90
26224;DHT22;14820;48.682;8.890;2022-09-06T09:01:32;22.00;99.90
26224;DHT22;14820;48.682;8.890;2022-09-06T09:04:03;22.00;99.90
26224;DHT22;14820;48.682;8.890;2022-09-06T09:06:31;22.00;99.90
26224;DHT22;14820;48.682;8.890;2022-09-06T09:09:05;22.00;99.90
26224;DHT22;14820;48.682;8.890;2022-09-06T09:11:32;22.10;99.90
26224;DHT22;14820;48.682;8.890;2022-09-06T09:14:14;22.10;99.90
26224;DHT22;14820;48.682;8.890;2022-09-06T09:16:41;22.20;99.90
26224;DHT22;14820;48.682;8.890;2022-09-06T09:19:07;22.20;99.90
26224;DHT22;14820;48.682;8.890;2022-09-06T09:21:36;22.20;99.90
26224;DHT22;14820;48.682;8.890;2022-09-06T09:24:06;22.20;99.90
26224;DHT22;14820;48.682;8.890;2022-09-06T09:27:24;22.30;99.90
26224;DHT22;14820;48.682;8.890;2022-09-06T09:29:25;22.40;99.90
26224;DHT22;14820;48.682;8.890;2022-09-06T09:31:54;22.50;99.90
26224;DHT22;14820;48.682;8.890;2022-09-06T09:37:21;22.70;99.90
26224;DHT22;14820;48.682;8.890;2022-09-06T09:39:49;22.90;99.90
26224;DHT22;14820;48.682;8.890;2022-09-06T09:42:43;23.00;99.90
26224;DHT22;14820;48.682;8.890;2022-09-06T09:45:27;23.10;99.90
26224;DHT22;14820;48.682;8.890;2022-09-06T09:47:53;23.20;99.90
26224;DHT22;14820;48.682;8.890;2022-09-06T09:52:51;23.50;99.90
26224;DHT22;14820;48.682;8.890;2022-09-06T09:55:22;23.60;99.90
26224;DHT22;14820;48.682;8.890;2022-09-06T09:57:48;23.70;99.90
26224;DHT22;14820;48.682;8.890;2022-09-06T10:00:38;23.80;99.90
26224;DHT22;14820;48.682;8.890;2022-09-06T10:03:16;23.90;99.90
26224;DHT22;14820;48.682;8.890;2022-09-06T10:05:54;24.00;99.90
26224;DHT22;14820;48.682;8.890;2022-09-06T10:08:23;24.00;99.90
26224;DHT22;14820;48.682;8.890;2022-09-06T10:10:49;24.10;99.90
26224;DHT22;14820;48.682;8.890;2022-09-06T10:13:22;24.20;99.90
26224;DHT22;14820;48.682;8.890;2022-09-06T10:15:50;24.30;99.90
26224;DHT22;14820;48.682;8.890;2022-09-06T10:21:02;24.40;99.90
26224;DHT22;14820;48.682;8.890;2022-09-06T10:26:21;24.30;99.90
26224;DHT22;14820;48.682;8.890;2022-09-06T10:28:55;24.20;99.90
26224;DHT22;14820;48.682;8.890;2022-09-06T10:36:37;24.00;99.90
26224;DHT22;14820;48.682;8.890;2022-09-06T10:42:08;23.90;99.90
26224;DHT22;14820;48.682;8.890;2022-09-06T10:53:43;24.00;99.90
26224;DHT22;14820;48.682;8.890;2022-09-06T10:56:28;24.00;99.90
26224;DHT22;14820;48.682;8.890;2022-09-06T10:59:02;23.90;99.90
26224;DHT22;14820;48.682;8.890;2022-09-06T11:01:33;23.90;99.90
26224;DHT22;14820;48.682;8.890;2022-09-06T11:04:04;24.00;99.90
26224;DHT22;14820;48.682;8.890;2022-09-06T11:06:36;24.10;99.90
26224;DHT22;14820;48.682;8.890;2022-09-06T11:14:38;24.50;99.90
26224;DHT22;14820;48.682;8.890;2022-09-06T11:17:09;24.60;99.90
26224;DHT22;14820;48.682;8.890;2022-09-06T11:20:02;24.60;99.90
26224;DHT22;14820;48.682;8.890;2022-09-06T11:28:00;24.70;99.90
26224;DHT22;14820;48.682;8.890;2022-09-06T11:30:27;24.70;99.90
26224;DHT22;14820;48.682;8.890;2022-09-06T11:33:22;24.80;99.90
26224;DHT22;14820;48.682;8.890;2022-09-06T11:35:51;24.80;99.90
26224;DHT22;14820;48.682;8.890;2022-09-06T11:38:23;24.80;99.90
26224;DHT22;14820;48.682;8.890;2022-09-06T11:40:57;24.90;99.90
26224;DHT22;14820;48.682;8.890;2022-09-06T11:46:10;25.10;99.90
26224;DHT22;14820;48.682;8.890;2022-09-06T11:48:58;25.20;99.90
26224;DHT22;14820;48.682;8.890;2022-09-06T11:51:40;25.30;99.90
26224;DHT22;14820;48.682;8.890;2022-09-06T11:54:22;25.40;99.90
26224;DHT22;14820;48.682;8.890;2022-09-06T11:57:09;25.40;99.90
26224;DHT22;14820;48.682;8.890;2022-09-06T12:00:00;25.40;99.90
26224;DHT22;14820;48.682;8.890;2022-09-06T12:02:34;25.50;99.90
26224;DHT22;14820;48.682;8.890;2022-09-06T12:07:29;25.60;99.90
26224;DHT22;14820;48.682;8.890;2022-09-06T12:09:56;25.60;99.90
26224;DHT22;14820;48.682;8.890;2022-09-06T12:12:44;25.70;99.90
26224;DHT22;14820;48.682;8.890;2022-09-06T12:15:30;25.80;99.90
26224;DHT22;14820;48.682;8.890;2022-09-06T12:17:58;25.90;99.90
26224;DHT22;14820;48.682;8.890;2022-09-06T12:26:01;26.20;99.90
26224;DHT22;14820;48.682;8.890;2022-09-06T12:28:49;26.30;99.90
26224;DHT22;14820;48.682;8.890;2022-09-06T12:31:29;26.40;99.90
26224;DHT22;14820;48.682;8.890;2022-09-06T12:33:57;26.50;99.90
26224;DHT22;14820;48.682;8.890;2022-09-06T12:36:29;26.60;99.90
26224;DHT22;14820;48.682;8.890;2022-09-06T12:38:59;26.50;99.90
26224;DHT22;14820;48.682;8.890;2022-09-06T12:41:31;26.50;99.90
26224;DHT22;14820;48.682;8.890;2022-09-06T12:44:03;26.50;99.90
26224;DHT22;14820;48.682;8.890;2022-09-06T12:46:30;26.50;99.90
26224;DHT22;14820;48.682;8.890;2022-09-06T12:49:08;26.70;99.90
26224;DHT22;14820;48.682;8.890;2022-09-06T12:51:36;26.70;99.90
26224;DHT22;14820;48.682;8.890;2022-09-06T12:54:21;26.50;99.90
26224;DHT22;14820;48.682;8.890;2022-09-06T12:56:47;26.20;99.90
26224;DHT22;14820;48.682;8.890;2022-09-06T12:59:24;26.00;99.90
26224;DHT22;14820;48.682;8.890;2022-09-06T13:01:58;25.80;99.90
26224;DHT22;14820;48.682;8.890;2022-09-06T13:04:40;25.60;99.90
26224;DHT22;14820;48.682;8.890;2022-09-06T13:07:10;25.60;99.90
26224;DHT22;14820;48.682;8.890;2022-09-06T13:09:39;25.50;99.90
26224;DHT22;14820;48.682;8.890;2022-09-06T13:12:54;25.40;99.90
26224;DHT22;14820;48.682;8.890;2022-09-06T13:14:56;25.40;99.90
26224;DHT22;14820;48.682;8.890;2022-09-06T13:17:27;25.40;99.90
26224;DHT22;14820;48.682;8.890;2022-09-06T13:19:54;25.40;99.90
26224;DHT22;14820;48.682;8.890;2022-09-06T13:22:41;25.30;99.90
26224;DHT22;14820;48.682;8.890;2022-09-06T13:25:22;25.10;99.90
26224;DHT22;14820;48.682;8.890;2022-09-06T13:27:58;25.00;99.90
26224;DHT22;14820;48.682;8.890;2022-09-06T13:30:40;25.00;99.90
26224;DHT22;14820;48.682;8.890;2022-09-06T13:33:21;25.00;99.90
26224;DHT22;14820;48.682;8.890;2022-09-06T13:38:41;25.00;99.90
26224;DHT22;14820;48.682;8.890;2022-09-06T13:44:00;25.20;99.90
26224;DHT22;14820;48.682;8.890;2022-09-06T13:46:28;25.20;99.90
26224;DHT22;14820;48.682;8.890;2022-09-06T13:48:54;25.30;99.90
26224;DHT22;14820;48.682;8.890;2022-09-06T13:51:20;25.40;99.90
26224;DHT22;14820;48.682;8.890;2022-09-06T13:53:46;25.40;99.90
26224;DHT22;14820;48.682;8.890;2022-09-06T13:56:12;25.40;99.90
26224;DHT22;14820;48.682;8.890;2022-09-06T13:58:37;25.40;99.90
26224;DHT22;14820;48.682;8.890;2022-09-06T14:01:04;25.40;99.90
26224;DHT22;14820;48.682;8.890;2022-09-06T14:03:34;25.40;99.90
26224;DHT22;14820;48.682;8.890;2022-09-06T14:06:01;25.40;99.90
26224;DHT22;14820;48.682;8.890;2022-09-06T14:08:27;25.50;99.90
26224;DHT22;14820;48.682;8.890;2022-09-06T14:10:53;25.50;99.90
26224;DHT22;14820;48.682;8.890;2022-09-06T14:13:20;25.60;99.90
26224;DHT22;14820;48.682;8.890;2022-09-06T14:15:48;25.60;99.90
26224;DHT22;14820;48.682;8.890;2022-09-06T14:18:14;25.60;99.90
26224;DHT22;14820;48.682;8.890;2022-09-06T14:20:41;25.60;99.90
26224;DHT22;14820;48.682;8.890;2022-09-06T14:23:07;25.60;99.90
26224;DHT22;14820;48.682;8.890;2022-09-06T14:25:35;25.60;99.90
26224;DHT22;14820;48.682;8.890;2022-09-06T14:28:02;25.50;99.90
26224;DHT22;14820;48.682;8.890;2022-09-06T14:30:28;25.50;99.90
26224;DHT22;14820;48.682;8.890;2022-09-06T14:32:54;25.60;99.90
26224;DHT22;14820;48.682;8.890;2022-09-06T14:35:19;25.60;99.90
26224;DHT22;14820;48.682;8.890;2022-09-06T14:37:45;25.50;99.90
26224;DHT22;14820;48.682;8.890;2022-09-06T14:40:11;25.40;99.90
26224;DHT22;14820;48.682;8.890;2022-09-06T14:42:36;25.40;99.90
26224;DHT22;14820;48.682;8.890;2022-09-06T14:45:03;25.30;99.90
26224;DHT22;14820;48.682;8.890;2022-09-06T14:47:29;25.20;99.90
26224;DHT22;14820;48.682;8.890;2022-09-06T14:49:54;25.00;99.90
26224;DHT22;14820;48.682;8.890;2022-09-06T14:52:20;24.90;99.90
26224;DHT22;14820;48.682;8.890;2022-09-06T14:54:46;24.70;99.90
26224;DHT22;14820;48.682;8.890;2022-09-06T14:57:11;24.60;99.90
26224;DHT22;14820;48.682;8.890;2022-09-06T14:59:37;24.60;99.90
26224;DHT22;14820;48.682;8.890;2022-09-06T15:02:03;24.50;99.90
26224;DHT22;14820;48.682;8.890;2022-09-06T15:04:28;24.40;99.90
26224;DHT22;14820;48.682;8.890;2022-09-06T15:06:54;24.40;99.90
26224;DHT22;14820;48.682;8.890;2022-09-06T15:09:21;24.40;99.90
26224;DHT22;14820;48.682;8.890;2022-09-06T15:11:48;24.40;99.90
26224;DHT22;14820;48.682;8.890;2022-09-06T15:14:24;24.40;99.90
26224;DHT22;14820;48.682;8.890;2022-09-06T15:16:51;24.30;99.90
26224;DHT22;14820;48.682;8.890;2022-09-06T15:19:21;24.20;99.90
26224;DHT22;14820;48.682;8.890;2022-09-06T15:21:47;24.20;99.90
26224;DHT22;14820;48.682;8.890;2022-09-06T15:24:13;24.10;99.90
26224;DHT22;14820;48.682;8.890;2022-09-06T15:26:40;24.10;99.90
26224;DHT22;14820;48.682;8.890;2022-09-06T15:29:08;24.10;99.90
26224;DHT22;14820;48.682;8.890;2022-09-06T15:31:34;24.20;99.90
26224;DHT22;14820;48.682;8.890;2022-09-06T15:34:00;24.20;99.90
26224;DHT22;14820;48.682;8.890;2022-09-06T15:36:27;24.20;99.90
26224;DHT22;14820;48.682;8.890;2022-09-06T15:38:54;24.20;99.90
26224;DHT22;14820;48.682;8.890;2022-09-06T15:41:26;24.20;99.90
26224;DHT22;14820;48.682;8.890;2022-09-06T15:44:16;24.20;99.90
26224;DHT22;14820;48.682;8.890;2022-09-06T15:46:45;24.20;99.90
26224;DHT22;14820;48.682;8.890;2022-09-06T15:49:22;24.20;99.90
26224;DHT22;14820;48.682;8.890;2022-09-06T15:51:48;24.20;99.90
26224;DHT22;14820;48.682;8.890;2022-09-06T15:54:16;24.20;99.90
26224;DHT22;14820;48.682;8.890;2022-09-06T15:56:43;24.30;99.90
26224;DHT22;14820;48.682;8.890;2022-09-06T15:59:10;24.30;99.90
26224;DHT22;14820;48.682;8.890;2022-09-06T16:01:36;24.40;99.90
26224;DHT22;14820;48.682;8.890;2022-09-06T16:04:03;24.40;99.90
26224;DHT22;14820;48.682;8.890;2022-09-06T16:06:35;24.40;99.90
26224;DHT22;14820;48.682;8.890;2022-09-06T16:09:08;24.40;99.90
26224;DHT22;14820;48.682;8.890;2022-09-06T16:11:34;24.50;99.90
26224;DHT22;14820;48.682;8.890;2022-09-06T16:14:02;24.60;99.90
26224;DHT22;14820;48.682;8.890;2022-09-06T16:16:28;24.60;99.90
26224;DHT22;14820;48.682;8.890;2022-09-06T16:18:56;24.70;99.90
26224;DHT22;14820;48.682;8.890;2022-09-06T16:21:24;24.80;99.90
26224;DHT22;14820;48.682;8.890;2022-09-06T16:23:57;24.80;99.90
26224;DHT22;14820;48.682;8.890;2022-09-06T16:26:25;24.80;99.90
26224;DHT22;14820;48.682;8.890;2022-09-06T16:28:52;24.90;99.90
26224;DHT22;14820;48.682;8.890;2022-09-06T16:31:19;24.90;99.90
26224;DHT22;14820;48.682;8.890;2022-09-06T16:33:45;25.00;99.90
26224;DHT22;14820;48.682;8.890;2022-09-06T16:36:13;25.00;99.90
26224;DHT22;14820;48.682;8.890;2022-09-06T16:38:40;25.00;99.90
26224;DHT22;14820;48.682;8.890;2022-09-06T16:41:18;25.00;99.90
26224;DHT22;14820;48.682;8.890;2022-09-06T16:43:45;25.00;99.90
26224;DHT22;14820;48.682;8.890;2022-09-06T16:46:14;25.00;99.90
26224;DHT22;14820;48.682;8.890;2022-09-06T16:48:41;25.00;99.90
26224;DHT22;14820;48.682;8.890;2022-09-06T16:51:08;25.00;99.90
26224;DHT22;14820;48.682;8.890;2022-09-06T16:53:35;25.00;99.90
26224;DHT22;14820;48.682;8.890;2022-09-06T16:56:02;24.90;99.90
26224;DHT22;14820;48.682;8.890;2022-09-06T16:58:29;24.80;99.90
26224;DHT22;14820;48.682;8.890;2022-09-06T17:00:58;24.80;99.90
26224;DHT22;14820;48.682;8.890;2022-09-06T17:03:25;24.70;99.90
26224;DHT22;14820;48.682;8.890;2022-09-06T17:05:51;24.70;99.90
26224;DHT22;14820;48.682;8.890;2022-09-06T17:08:18;24.60;99.90
26224;DHT22;14820;48.682;8.890;2022-09-06T17:10:44;24.60;99.90
26224;DHT22;14820;48.682;8.890;2022-09-06T17:13:10;24.50;99.90